createdAt,value
2023-05-19T00:00:28.930Z,2.17
2023-05-19T00:05:33.626Z,1.90
2023-05-19T00:10:40.142Z,1.80
2023-05-19T00:15:44.744Z,1.88
2023-05-19T00:20:48.736Z,2.47
2023-05-19T00:25:54.212Z,1.60
2023-05-19T00:30:58.089Z,2.10
2023-05-19T00:36:03.540Z,1.73
2023-05-19T00:41:09.092Z,2.38
2023-05-19T00:46:13.107Z,1.90
2023-05-19T00:51:19.202Z,1.90
2023-05-19T00:56:24.868Z,2.20
2023-05-19T01:01:29.324Z,1.73
2023-05-19T01:06:33.465Z,1.85
2023-05-19T01:11:38.628Z,1.85
2023-05-19T01:16:47.978Z,2.00
2023-05-19T01:22:28.981Z,1.80
2023-05-19T01:27:54.702Z,1.90
2023-05-19T01:33:02.965Z,2.10
2023-05-19T01:38:10.255Z,1.90
2023-05-19T01:43:23.548Z,1.80
2023-05-19T01:48:30.086Z,2.00
2023-05-19T01:53:34.925Z,1.95
2023-05-19T01:58:44.419Z,1.90
2023-05-19T02:04:12.538Z,2.17
2023-05-19T02:09:22.831Z,2.00
2023-05-19T02:19:39.516Z,2.00
2023-05-19T02:24:44.549Z,1.88
2023-05-19T02:29:48.396Z,2.13
2023-05-19T02:34:53.695Z,2.10
2023-05-19T02:39:57.569Z,2.15
2023-05-19T02:45:01.909Z,1.90
2023-05-19T02:50:09.346Z,2.13
2023-05-19T02:55:17.380Z,2.00
2023-05-19T03:00:21.590Z,1.70
2023-05-19T03:05:26.878Z,2.15
2023-05-19T03:10:30.908Z,1.83
2023-05-19T03:15:35.518Z,1.75
2023-05-19T03:20:43.731Z,2.17
2023-05-19T03:25:47.957Z,2.20
2023-05-19T03:30:52.395Z,1.98
2023-05-19T03:36:02.088Z,2.00
2023-05-19T03:41:10.286Z,2.20
2023-05-19T03:46:17.409Z,2.30
2023-05-19T03:51:35.158Z,1.88
2023-05-19T03:56:48.177Z,1.88
2023-05-19T04:01:52.999Z,2.17
2023-05-19T04:06:58.566Z,2.45
2023-05-19T04:12:03.833Z,2.47
2023-05-19T04:17:07.858Z,2.10
2023-05-19T04:22:13.390Z,2.17
2023-05-19T04:27:19.157Z,1.80
2023-05-19T04:32:23.672Z,2.25
2023-05-19T04:37:30.904Z,2.83
2023-05-19T04:42:35.996Z,1.98
2023-05-19T04:47:42.044Z,2.45
2023-05-19T04:52:47.728Z,2.00
2023-05-19T04:57:52.395Z,1.90
2023-05-19T05:02:58.221Z,2.13
2023-05-19T05:08:07.108Z,2.40
2023-05-19T05:13:17.652Z,2.42
2023-05-19T05:18:22.350Z,2.60
2023-05-19T05:23:29.244Z,2.00
2023-05-19T05:28:34.108Z,2.20
2023-05-19T05:33:39.986Z,2.33
2023-05-19T05:38:47.003Z,2.00
2023-05-19T05:43:51.231Z,1.90
2023-05-19T05:48:56.494Z,2.15
2023-05-19T05:54:03.950Z,1.92
2023-05-19T05:59:13.704Z,2.40
2023-05-19T06:04:19.064Z,2.35
2023-05-19T06:09:24.458Z,2.00
2023-05-19T06:14:29.318Z,4.97
2023-05-19T06:20:02.531Z,2.80
2023-05-19T06:25:10.175Z,2.75
2023-05-19T06:30:15.481Z,2.25
2023-05-19T06:35:42.041Z,1.77
2023-05-19T06:40:47.725Z,2.35
2023-05-19T06:45:51.801Z,2.00
2023-05-19T06:50:56.293Z,2.17
2023-05-19T06:56:03.019Z,2.08
2023-05-19T07:01:10.435Z,2.33
2023-05-19T07:11:26.432Z,2.05
2023-05-19T07:16:30.982Z,2.20
2023-05-19T07:21:34.951Z,2.47
2023-05-19T07:26:40.318Z,2.38
2023-05-19T07:31:44.429Z,2.10
2023-05-19T07:36:50.803Z,2.17
2023-05-19T07:41:56.234Z,2.55
2023-05-19T07:47:00.944Z,2.80
2023-05-19T07:52:06.750Z,2.45
2023-05-19T07:57:12.197Z,2.13
2023-05-19T08:02:17.684Z,2.17
2023-05-19T08:07:21.797Z,2.30
2023-05-19T08:12:27.389Z,2.08
2023-05-19T08:17:31.356Z,2.75
2023-05-19T08:22:35.394Z,2.10
2023-05-19T08:27:40.780Z,2.45
2023-05-19T08:32:47.722Z,2.00
2023-05-19T08:37:56.028Z,2.90
2023-05-19T08:43:02.208Z,2.60
2023-05-19T08:48:07.484Z,2.42
2023-05-19T08:58:44.269Z,2.53
2023-05-19T09:03:50.291Z,2.40
2023-05-19T09:08:54.557Z,2.20
2023-05-19T09:14:05.555Z,2.72
2023-05-19T09:19:18.275Z,2.38
2023-05-19T09:24:26.929Z,2.55
2023-05-19T09:29:39.913Z,2.28
2023-05-19T09:34:44.243Z,2.08
2023-05-19T09:39:52.281Z,2.20
2023-05-19T09:45:04.130Z,2.53
2023-05-19T09:50:10.653Z,2.38
2023-05-19T09:55:20.097Z,1.98
2023-05-19T10:00:26.862Z,2.20
2023-05-19T10:05:31.506Z,2.65
2023-05-19T10:10:35.849Z,2.30
2023-05-19T10:15:57.426Z,2.35
2023-05-19T10:21:04.142Z,2.78
2023-05-19T10:26:09.350Z,2.50
2023-05-19T10:31:20.682Z,2.22
2023-05-19T10:36:38.808Z,2.33
2023-05-19T10:41:55.096Z,2.22
2023-05-19T10:47:00.919Z,2.65
2023-05-19T10:52:23.492Z,2.50
2023-05-19T10:57:28.873Z,2.33
2023-05-19T11:02:42.506Z,2.38
2023-05-19T11:08:02.611Z,2.45
2023-05-19T11:13:07.188Z,2.30
2023-05-19T11:18:16.648Z,2.22
2023-05-19T11:23:23.251Z,2.23
2023-05-19T11:28:29.468Z,2.13
2023-05-19T11:33:35.278Z,2.30
2023-05-19T11:38:40.032Z,2.58
2023-05-19T11:43:44.280Z,2.35
2023-05-19T11:48:50.607Z,2.20
2023-05-19T11:53:54.880Z,2.78
2023-05-19T11:58:59.107Z,2.33
2023-05-19T12:04:09.879Z,2.08
2023-05-19T12:09:14.594Z,2.50
2023-05-19T12:14:18.715Z,2.35
2023-05-19T12:19:26.771Z,2.55
2023-05-19T12:24:34.254Z,2.17
2023-05-19T12:29:39.780Z,2.47
2023-05-19T12:34:46.935Z,2.25
2023-05-19T12:39:52.150Z,2.65
2023-05-19T12:44:57.687Z,2.40
2023-05-19T12:50:09.440Z,2.58
2023-05-19T12:55:16.508Z,2.08
2023-05-19T13:00:22.811Z,2.38
2023-05-19T13:05:29.027Z,2.47
2023-05-19T13:10:33.573Z,2.20
2023-05-19T13:15:40.733Z,1.85
2023-05-19T13:20:49.417Z,2.42
2023-05-19T13:25:53.376Z,2.38
2023-05-19T13:30:57.621Z,2.45
2023-05-19T13:36:03.648Z,2.58
2023-05-19T13:41:09.422Z,2.30
2023-05-19T13:46:14.780Z,3.25
2023-05-19T13:51:20.300Z,3.30
2023-05-19T13:56:26.296Z,2.80
2023-05-19T14:01:30.560Z,2.65
2023-05-19T14:06:37.023Z,2.45
2023-05-19T14:11:44.459Z,2.45
2023-05-19T14:16:59.742Z,2.95
2023-05-19T14:22:05.878Z,2.50
2023-05-19T14:27:10.535Z,2.05
2023-05-19T14:32:23.501Z,2.25
2023-05-19T14:37:32.535Z,2.33
2023-05-19T14:42:36.713Z,2.10
2023-05-19T14:47:40.935Z,2.20
2023-05-19T14:52:47.269Z,2.03
2023-05-19T14:57:51.538Z,1.95
2023-05-19T15:02:58.091Z,2.30
2023-05-19T15:08:06.100Z,2.38
2023-05-19T15:13:12.221Z,2.10
2023-05-19T15:18:20.239Z,2.03
2023-05-19T15:23:26.086Z,2.10
2023-05-19T15:28:30.129Z,1.98
2023-05-19T15:33:34.189Z,1.90
2023-05-19T15:38:39.876Z,2.30
2023-05-19T15:43:46.644Z,2.20
2023-05-19T15:48:50.689Z,2.08
2023-05-19T15:53:56.193Z,2.40
2023-05-19T15:59:01.270Z,2.00
2023-05-19T16:04:06.177Z,2.35
2023-05-19T16:09:11.987Z,2.28
2023-05-19T16:14:16.327Z,1.88
2023-05-19T16:19:20.786Z,1.90
2023-05-19T16:24:29.741Z,2.25
2023-05-19T16:29:34.243Z,1.73
2023-05-19T16:34:38.555Z,1.80
2023-05-19T16:39:45.072Z,2.20
2023-05-19T16:44:53.991Z,1.98
2023-05-19T16:49:58.759Z,2.10
2023-05-19T16:55:04.525Z,1.65
2023-05-19T17:00:10.468Z,1.90
2023-05-19T17:05:14.848Z,2.17
2023-05-19T17:10:21.002Z,1.90
2023-05-19T17:15:25.377Z,2.35
2023-05-19T17:20:29.553Z,2.15
2023-05-19T17:25:35.942Z,1.85
2023-05-19T17:30:41.382Z,2.25
2023-05-19T17:35:46.637Z,2.22
2023-05-19T17:40:54.386Z,1.92
2023-05-19T17:46:00.287Z,2.30
2023-05-19T17:51:07.461Z,3.17
2023-05-19T17:56:13.893Z,2.42
2023-05-19T18:01:18.367Z,3.30
2023-05-19T18:06:23.268Z,4.50
2023-05-19T18:11:29.297Z,3.67
2023-05-19T18:16:35.416Z,2.13
2023-05-19T18:21:39.814Z,1.85
2023-05-19T18:26:47.911Z,1.83
2023-05-19T18:31:52.148Z,1.80
2023-05-19T18:36:56.437Z,1.60
2023-05-19T18:42:02.026Z,1.85
2023-05-19T18:47:06.680Z,1.85
2023-05-19T18:52:10.746Z,2.13
2023-05-19T18:57:16.792Z,2.47
2023-05-19T19:02:20.933Z,2.40
2023-05-19T19:07:25.652Z,2.20
2023-05-19T19:12:31.045Z,2.13
2023-05-19T19:17:35.668Z,2.22
2023-05-19T19:22:42.460Z,3.45
2023-05-19T19:27:48.129Z,2.90
2023-05-19T19:32:53.755Z,2.75
2023-05-19T19:37:58.614Z,2.33
2023-05-19T19:43:04.236Z,2.47
2023-05-19T19:48:08.618Z,2.75
2023-05-19T19:53:12.575Z,2.50
2023-05-19T19:58:18.388Z,2.88
2023-05-19T20:03:22.865Z,2.72
2023-05-19T20:08:28.711Z,2.75
2023-05-19T20:13:35.439Z,2.38
2023-05-19T20:18:40.059Z,2.72
2023-05-19T20:23:44.317Z,2.97
2023-05-19T20:28:50.386Z,2.63
2023-05-19T20:33:54.600Z,2.40
2023-05-19T20:38:58.577Z,2.70
2023-05-19T20:44:04.341Z,3.08
2023-05-19T20:49:08.392Z,2.72
2023-05-19T20:54:12.828Z,2.83
2023-05-19T20:59:18.570Z,2.72
2023-05-19T21:04:22.932Z,3.10
2023-05-19T21:09:27.664Z,3.30
2023-05-19T21:14:33.196Z,2.90
2023-05-19T21:19:38.536Z,2.55
2023-05-19T21:24:42.705Z,2.65
2023-05-19T21:29:48.391Z,2.35
2023-05-19T21:34:52.587Z,2.88
2023-05-19T21:39:56.746Z,2.55
2023-05-19T21:45:02.315Z,3.78
2023-05-19T21:50:07.462Z,2.65
2023-05-19T21:55:11.854Z,3.67
2023-05-19T22:00:17.437Z,3.00
2023-05-19T22:05:21.626Z,3.10
2023-05-19T22:10:28.751Z,3.38
2023-05-19T22:15:34.245Z,2.78
2023-05-19T22:20:38.618Z,2.70
2023-05-19T22:25:42.732Z,3.25
2023-05-19T22:30:48.294Z,4.18
2023-05-19T22:35:52.756Z,3.45
2023-05-19T22:40:58.948Z,3.25
2023-05-19T22:46:04.683Z,2.65
2023-05-19T22:51:08.620Z,2.83
2023-05-19T22:56:12.617Z,2.90
2023-05-19T23:01:20.551Z,2.88
2023-05-19T23:06:24.556Z,2.58
2023-05-19T23:11:28.635Z,3.47
2023-05-19T23:16:34.068Z,3.10
2023-05-19T23:21:38.347Z,3.60
2023-05-19T23:26:43.973Z,3.47
2023-05-19T23:31:49.545Z,3.22
2023-05-19T23:36:53.505Z,3.38
2023-05-19T23:41:57.555Z,3.40
2023-05-19T23:47:03.123Z,3.50
2023-05-19T23:52:08.031Z,3.28
2023-05-19T23:57:22.811Z,3.35
